Time;durP1;ratioP1;P1;durP2;ratioP2;P2;SDS_P1;SDS_P2;PMS_P1;PMS_P2;Temp;Humidity;BMP_temperature;BMP_pressure;BME280_temperature;BME280_humidity;BME280_pressure;Samples;Min_cycle;Max_cycle;Signal;HPM_P1;HPM_P2
2022/06/25 00:01:25;;;;;;;0.30;0.30;;;15.70;99.90;;;;;;4959081;28;20317;-88
2022/06/25 00:03:52;;;;;;;0.10;0.10;;;15.70;99.90;;;;;;4955670;28;20047;-88
2022/06/25 00:06:19;;;;;;;0.00;0.00;;;15.70;99.90;;;;;;4955989;28;20035;-87
2022/06/25 00:08:46;;;;;;;0.45;0.45;;;15.70;99.90;;;;;;4954733;28;20035;-88
2022/06/25 00:12:31;;;;;;;0.10;0.10;;;15.70;99.90;;;;;;4950864;28;20080;-88
2022/06/25 00:14:03;;;;;;;0.20;0.20;;;15.70;99.90;;;;;;4952236;28;20563;-88
2022/06/25 00:16:28;;;;;;;0.30;0.30;;;15.70;99.90;;;;;;4961473;28;20445;-87
2022/06/25 00:18:54;;;;;;;0.20;0.20;;;15.60;99.90;;;;;;4965325;28;20097;-87
2022/06/25 00:21:19;;;;;;;0.20;0.20;;;15.60;99.90;;;;;;4951679;28;20089;-87
2022/06/25 00:23:45;;;;;;;0.37;0.33;;;15.60;99.90;;;;;;4960423;28;20030;-88
2022/06/25 00:26:11;;;;;;;0.63;0.63;;;15.60;99.90;;;;;;4940437;28;20050;-88
2022/06/25 00:28:36;;;;;;;0.20;0.10;;;15.60;99.90;;;;;;4960382;28;20027;-88
2022/06/25 00:31:02;;;;;;;0.10;0.10;;;15.50;99.90;;;;;;4957085;28;20116;-88
2022/06/25 00:33:28;;;;;;;0.10;0.10;;;15.40;99.90;;;;;;4954940;28;20912;-88
2022/06/25 00:35:53;;;;;;;5.95;2.08;;;15.40;99.90;;;;;;4956442;28;20027;-88
2022/06/25 00:38:19;;;;;;;0.43;0.38;;;15.30;99.90;;;;;;4939715;28;20066;-88
2022/06/25 00:40:45;;;;;;;0.63;0.63;;;15.20;99.90;;;;;;4935198;28;20051;-87
2022/06/25 00:43:11;;;;;;;0.28;0.28;;;15.30;99.90;;;;;;4943189;28;20035;-87
2022/06/25 00:45:37;;;;;;;0.35;0.30;;;15.40;99.90;;;;;;4954808;28;20046;-87
2022/06/25 00:48:03;;;;;;;0.20;0.20;;;15.40;99.90;;;;;;4956534;28;20023;-87
2022/06/25 00:50:28;;;;;;;0.10;0.10;;;15.40;99.90;;;;;;4953929;28;20043;-88
2022/06/25 00:52:57;;;;;;;0.10;0.10;;;15.40;99.90;;;;;;4955059;28;20846;-87
2022/06/25 00:55:28;;;;;;;0.22;0.17;;;15.30;99.90;;;;;;4953722;28;20070;-87
2022/06/25 00:57:58;;;;;;;0.50;0.50;;;15.30;99.90;;;;;;4952328;28;20054;-88
2022/06/25 01:00:24;;;;;;;0.30;0.30;;;15.30;99.90;;;;;;4953171;28;20039;-87
2022/06/25 01:02:50;;;;;;;0.60;0.47;;;15.30;99.90;;;;;;4956646;28;20031;-88
2022/06/25 01:05:16;;;;;;;0.10;0.10;;;15.30;99.90;;;;;;4953520;28;20042;-87
2022/06/25 01:07:45;;;;;;;0.20;0.20;;;15.10;99.90;;;;;;4953228;28;20035;-87
2022/06/25 01:10:13;;;;;;;0.00;0.00;;;15.10;99.90;;;;;;4950076;28;20074;-87
2022/06/25 01:12:39;;;;;;;0.38;0.38;;;15.10;99.90;;;;;;4953555;28;20037;-87
2022/06/25 01:15:09;;;;;;;0.20;0.20;;;15.00;99.90;;;;;;4954733;28;20043;-87
2022/06/25 01:17:48;;;;;;;0.25;0.15;;;15.00;99.90;;;;;;4953731;28;20439;-87
2022/06/25 01:20:15;;;;;;;0.10;0.10;;;15.00;99.90;;;;;;4953366;28;20156;-88
2022/06/25 01:22:41;;;;;;;0.35;0.35;;;14.90;99.90;;;;;;4954319;28;20035;-88
2022/06/25 01:25:08;;;;;;;0.30;0.30;;;14.80;99.90;;;;;;4950787;28;20046;-88
2022/06/25 01:27:35;;;;;;;0.20;0.20;;;14.80;99.90;;;;;;4954632;28;20451;-87
2022/06/25 01:30:00;;;;;;;0.10;0.10;;;14.70;99.90;;;;;;4949923;28;20035;-87
2022/06/25 01:32:26;;;;;;;0.67;0.67;;;14.60;99.90;;;;;;4959504;28;20031;-87
2022/06/25 01:34:52;;;;;;;0.67;0.27;;;14.60;99.90;;;;;;4952593;28;20438;-87
2022/06/25 01:37:17;;;;;;;0.50;0.20;;;14.60;99.90;;;;;;4957521;28;20493;-88
2022/06/25 01:39:43;;;;;;;0.28;0.22;;;14.50;99.90;;;;;;4952376;28;20035;-88
2022/06/25 01:42:58;;;;;;;0.13;0.13;;;14.40;99.90;;;;;;4948288;28;20050;-87
2022/06/25 01:44:54;;;;;;;0.27;0.20;;;14.40;99.90;;;;;;4951900;28;20031;-87
2022/06/25 01:47:20;;;;;;;0.77;0.70;;;14.40;99.90;;;;;;4953094;28;20353;-88
2022/06/25 01:49:45;;;;;;;0.05;0.05;;;14.30;99.90;;;;;;4945022;28;20031;-88
2022/06/25 01:52:13;;;;;;;0.05;0.05;;;14.20;99.90;;;;;;4952651;28;20049;-87
2022/06/25 01:54:39;;;;;;;1.10;0.43;;;14.30;99.90;;;;;;4950896;28;20027;-87
2022/06/25 01:57:05;;;;;;;0.20;0.20;;;14.10;99.90;;;;;;4955128;28;20046;-87
2022/06/25 01:59:31;;;;;;;0.10;0.10;;;14.20;99.90;;;;;;4955622;28;20062;-87
2022/06/25 02:01:56;;;;;;;0.10;0.10;;;14.20;99.90;;;;;;4952943;28;20046;-87
2022/06/25 02:04:22;;;;;;;0.20;0.20;;;14.20;99.90;;;;;;4956914;28;20063;-87
2022/06/25 02:06:48;;;;;;;0.20;0.20;;;14.20;99.90;;;;;;4955914;28;20500;-87
2022/06/25 02:09:13;;;;;;;0.20;0.20;;;14.10;99.90;;;;;;4953124;28;20488;-88
2022/06/25 02:11:39;;;;;;;0.20;0.20;;;14.10;99.90;;;;;;4961197;28;20134;-87
2022/06/25 02:14:05;;;;;;;0.30;0.30;;;14.20;99.90;;;;;;4955238;28;20106;-88
2022/06/25 02:16:30;;;;;;;0.10;0.10;;;14.20;99.90;;;;;;4949137;28;20046;-87
2022/06/25 02:18:56;;;;;;;0.10;0.10;;;14.10;99.90;;;;;;4959483;28;20112;-87
2022/06/25 02:21:21;;;;;;;0.10;0.10;;;14.10;99.90;;;;;;4959637;28;20076;-87
2022/06/25 02:23:47;;;;;;;0.13;0.13;;;14.00;99.90;;;;;;4964021;28;20049;-88
2022/06/25 02:26:13;;;;;;;0.10;0.10;;;14.00;99.90;;;;;;4954186;28;20039;-88
2022/06/25 02:28:38;;;;;;;0.25;0.25;;;13.90;99.90;;;;;;4962281;28;20118;-87
2022/06/25 02:31:04;;;;;;;0.10;0.10;;;13.90;99.90;;;;;;4963533;28;20813;-86
2022/06/25 02:33:30;;;;;;;0.05;0.05;;;13.90;99.90;;;;;;4961103;28;20056;-87
2022/06/25 02:35:55;;;;;;;0.30;0.30;;;14.00;99.90;;;;;;4959213;28;20041;-87
2022/06/25 02:38:21;;;;;;;0.20;0.20;;;14.00;99.90;;;;;;4961880;28;20031;-87
2022/06/25 02:40:47;;;;;;;0.38;0.38;;;14.00;99.90;;;;;;4954045;28;20069;-87
2022/06/25 02:43:12;;;;;;;0.10;0.10;;;13.90;99.90;;;;;;4956976;28;20030;-86
2022/06/25 02:45:38;;;;;;;0.17;0.17;;;13.90;99.90;;;;;;4945977;28;20027;-86
2022/06/25 02:48:04;;;;;;;0.10;0.10;;;13.90;99.90;;;;;;4963052;28;20027;-87
2022/06/25 02:50:31;;;;;;;0.35;0.20;;;14.00;99.90;;;;;;4944199;29;20635;-87
2022/06/25 02:52:56;;;;;;;0.20;0.20;;;13.90;99.90;;;;;;4960716;28;20150;-87
2022/06/25 03:00:51;;;;;;;0.30;0.30;;;14.00;99.90;;;;;;4959770;28;20130;-86
2022/06/25 03:03:16;;;;;;;0.65;0.28;;;13.90;99.90;;;;;;4955703;28;20039;-87
2022/06/25 03:05:42;;;;;;;0.10;0.10;;;13.90;99.90;;;;;;4961929;28;20030;-87
2022/06/25 03:08:08;;;;;;;0.07;0.07;;;13.80;99.90;;;;;;4960337;28;20027;-86
2022/06/25 03:10:33;;;;;;;0.22;0.22;;;13.90;99.90;;;;;;4944941;28;20046;-87
2022/06/25 03:12:59;;;;;;;0.17;0.17;;;13.90;99.90;;;;;;4956546;28;20034;-87
2022/06/25 03:15:25;;;;;;;0.50;0.50;;;13.90;99.90;;;;;;4956295;28;20033;-86
2022/06/25 03:17:50;;;;;;;0.13;0.13;;;13.90;99.90;;;;;;4956973;28;20039;-88
2022/06/25 03:20:16;;;;;;;0.00;0.00;;;13.80;99.90;;;;;;4944265;28;20559;-87
2022/06/25 03:22:41;;;;;;;0.40;0.40;;;13.70;99.90;;;;;;4962616;28;20053;-87
2022/06/25 03:25:08;;;;;;;0.20;0.20;;;13.70;99.90;;;;;;4956433;28;20416;-87
2022/06/25 03:27:35;;;;;;;0.10;0.10;;;13.70;99.90;;;;;;4958816;28;20023;-88
2022/06/25 03:30:00;;;;;;;0.13;0.13;;;13.80;99.90;;;;;;4957763;28;20598;-87
2022/06/25 03:32:26;;;;;;;0.22;0.22;;;13.70;99.90;;;;;;4960561;28;20031;-86
2022/06/25 03:34:52;;;;;;;0.00;0.00;;;13.60;99.90;;;;;;4941246;28;20103;-86
2022/06/25 03:37:17;;;;;;;0.10;0.10;;;13.60;99.90;;;;;;4954179;28;20034;-87
2022/06/25 03:39:43;;;;;;;0.10;0.10;;;13.60;99.90;;;;;;4952199;28;20039;-86
2022/06/25 03:42:09;;;;;;;0.10;0.10;;;13.50;99.90;;;;;;4957430;28;20038;-87
2022/06/25 03:44:35;;;;;;;0.20;0.20;;;13.40;99.90;;;;;;4952892;28;20291;-86
2022/06/25 03:47:00;;;;;;;0.30;0.30;;;13.40;99.90;;;;;;4957293;28;20038;-88
2022/06/25 03:49:26;;;;;;;0.20;0.20;;;13.40;99.90;;;;;;4933066;29;20081;-89
2022/06/25 03:51:52;;;;;;;0.10;0.10;;;13.40;99.90;;;;;;4934741;28;20031;-85
2022/06/25 03:54:18;;;;;;;0.20;0.20;;;13.40;99.90;;;;;;4943171;28;20062;-85
2022/06/25 03:56:43;;;;;;;0.20;0.20;;;13.40;99.90;;;;;;4940029;28;20030;-86
2022/06/25 03:59:09;;;;;;;0.10;0.10;;;13.40;99.90;;;;;;4957583;28;20042;-87
2022/06/25 04:01:35;;;;;;;0.55;0.30;;;13.40;99.90;;;;;;4960078;28;20039;-87
2022/06/25 04:04:00;;;;;;;0.30;0.30;;;13.40;99.90;;;;;;4952631;28;20034;-87
2022/06/25 04:06:26;;;;;;;0.00;0.00;;;13.40;99.90;;;;;;4955332;28;20059;-85
2022/06/25 04:08:52;;;;;;;0.17;0.17;;;13.40;99.90;;;;;;4957339;28;20030;-87
2022/06/25 04:11:18;;;;;;;0.47;0.47;;;13.40;99.90;;;;;;4948790;28;20494;-87
2022/06/25 04:13:44;;;;;;;0.10;0.10;;;13.50;99.90;;;;;;4959523;28;20435;-88
2022/06/25 04:16:09;;;;;;;0.10;0.10;;;13.50;99.90;;;;;;4960211;28;20137;-87
2022/06/25 04:18:35;;;;;;;0.10;0.10;;;13.50;99.90;;;;;;4953941;28;20467;-87
2022/06/25 04:21:01;;;;;;;0.40;0.40;;;13.60;99.90;;;;;;4953573;28;20603;-86
2022/06/25 04:23:27;;;;;;;0.20;0.20;;;13.80;99.90;;;;;;4949793;28;20027;-88
2022/06/25 04:25:53;;;;;;;0.30;0.30;;;14.10;99.90;;;;;;4955297;28;20027;-85
2022/06/25 04:31:02;;;;;;;0.50;0.45;;;14.60;99.90;;;;;;4957186;28;20407;-84
2022/06/25 04:33:28;;;;;;;0.00;0.00;;;14.80;99.90;;;;;;4959297;28;20030;-85
2022/06/25 04:35:54;;;;;;;0.10;0.10;;;15.10;99.90;;;;;;4956136;28;20038;-88
2022/06/25 04:38:19;;;;;;;0.20;0.20;;;15.30;99.90;;;;;;4949099;28;20031;-87
2022/06/25 04:40:45;;;;;;;0.10;0.10;;;15.50;99.90;;;;;;4954049;28;20567;-87
2022/06/25 04:43:11;;;;;;;0.10;0.10;;;15.60;99.90;;;;;;4956145;28;20019;-86
2022/06/25 04:45:36;;;;;;;0.10;0.10;;;15.30;99.90;;;;;;4955759;28;20042;-86
2022/06/25 04:48:04;;;;;;;0.08;0.08;;;15.50;99.90;;;;;;4954738;28;20035;-84
2022/06/25 04:50:30;;;;;;;0.10;0.10;;;15.90;99.90;;;;;;4953422;28;20035;-83
2022/06/25 04:52:56;;;;;;;0.00;0.00;;;16.30;99.90;;;;;;4949626;28;20035;-86
2022/06/25 04:55:22;;;;;;;0.43;0.43;;;16.60;99.90;;;;;;4959340;28;20038;-85
2022/06/25 04:57:48;;;;;;;0.00;0.00;;;17.10;99.90;;;;;;4952766;28;20031;-85
2022/06/25 05:00:14;;;;;;;0.00;0.00;;;17.10;99.90;;;;;;4946839;28;20035;-84
2022/06/25 05:02:40;;;;;;;0.15;0.15;;;16.80;99.90;;;;;;4957862;28;20027;-83
2022/06/25 05:05:07;;;;;;;0.20;0.13;;;16.80;99.90;;;;;;4955463;28;20062;-84
2022/06/25 05:07:32;;;;;;;0.10;0.10;;;17.00;99.90;;;;;;4954785;28;20464;-83
2022/06/25 05:09:58;;;;;;;0.20;0.20;;;16.00;99.90;;;;;;4950492;28;20038;-86
2022/06/25 05:15:09;;;;;;;0.00;0.00;;;16.30;99.90;;;;;;4949889;28;20049;-85
2022/06/25 05:17:35;;;;;;;0.53;0.20;;;17.40;99.90;;;;;;4956877;28;20027;-87
2022/06/25 05:20:01;;;;;;;0.00;0.00;;;18.10;99.90;;;;;;4958086;28;20047;-88
2022/06/25 05:22:27;;;;;;;0.00;0.00;;;17.30;99.90;;;;;;4946133;28;20577;-87
2022/06/25 05:24:52;;;;;;;0.00;0.00;;;18.60;99.90;;;;;;4954158;28;20041;-87
2022/06/25 05:27:18;;;;;;;0.40;0.20;;;18.90;99.90;;;;;;4958215;28;20034;-89
2022/06/25 05:29:44;;;;;;;0.00;0.00;;;18.90;99.90;;;;;;4935621;28;20041;-86
2022/06/25 05:32:09;;;;;;;0.00;0.00;;;19.00;99.90;;;;;;4961173;28;20034;-87
2022/06/25 05:34:35;;;;;;;0.23;0.23;;;19.10;99.90;;;;;;4956751;28;20026;-88
2022/06/25 05:37:01;;;;;;;0.40;0.40;;;19.40;99.90;;;;;;4951564;28;20043;-88
2022/06/25 05:39:26;;;;;;;0.10;0.10;;;19.80;99.90;;;;;;4951895;28;20057;-85
2022/06/25 05:41:52;;;;;;;0.20;0.20;;;21.10;99.90;;;;;;4958738;28;20049;-86
2022/06/25 05:44:18;;;;;;;0.10;0.10;;;21.20;99.90;;;;;;4947947;28;20031;-86
2022/06/25 05:46:44;;;;;;;0.27;0.27;;;21.60;99.90;;;;;;4940936;28;20066;-86
2022/06/25 05:49:10;;;;;;;;;;;21.00;99.90;;;;;;4958927;28;20415;-86
2022/06/25 05:51:36;;;;;;;0.00;0.00;;;21.20;99.90;;;;;;4954077;28;19915;-87
2022/06/25 05:54:01;;;;;;;0.00;0.00;;;20.00;99.90;;;;;;4958863;28;20037;-86
2022/06/25 05:56:27;;;;;;;0.00;0.00;;;19.40;99.90;;;;;;4956940;28;20390;-86
2022/06/25 05:58:53;;;;;;;0.10;0.10;;;18.00;99.90;;;;;;4959779;28;20526;-86
2022/06/25 06:01:18;;;;;;;0.00;0.00;;;18.30;99.90;;;;;;4952403;28;20043;-85
2022/06/25 06:03:44;;;;;;;0.00;0.00;;;18.00;99.90;;;;;;4953128;28;20491;-86
2022/06/25 06:06:09;;;;;;;0.10;0.10;;;18.00;99.90;;;;;;4954232;28;20046;-89
2022/06/25 06:08:35;;;;;;;0.10;0.10;;;19.80;99.90;;;;;;4960000;28;20030;-88
2022/06/25 06:11:01;;;;;;;0.10;0.10;;;20.50;99.90;;;;;;4956806;28;20019;-88
2022/06/25 06:13:26;;;;;;;0.00;0.00;;;22.40;99.90;;;;;;4957349;28;20022;-88
2022/06/25 06:15:52;;;;;;;0.10;0.00;;;23.70;99.90;;;;;;4938670;28;20031;-88
2022/06/25 06:18:18;;;;;;;0.17;0.17;;;23.70;99.90;;;;;;4956227;28;20148;-88
2022/06/25 06:20:44;;;;;;;2.72;1.85;;;24.50;95.80;;;;;;4960899;28;20065;-88
2022/06/25 06:23:09;;;;;;;0.00;0.00;;;24.30;95.50;;;;;;4952488;28;20042;-88
2022/06/25 06:25:35;;;;;;;0.20;0.10;;;24.40;95.90;;;;;;4947806;28;20496;-88
2022/06/25 06:28:01;;;;;;;0.10;0.10;;;22.90;99.90;;;;;;4948618;28;20146;-87
2022/06/25 06:30:27;;;;;;;0.10;0.10;;;23.60;99.90;;;;;;4949664;28;20050;-87
2022/06/25 06:32:52;;;;;;;0.00;0.00;;;23.30;99.10;;;;;;4929119;28;20023;-88
2022/06/25 06:35:18;;;;;;;0.20;0.20;;;21.80;99.90;;;;;;4949138;28;20290;-87
2022/06/25 06:37:44;;;;;;;0.43;0.20;;;21.70;99.90;;;;;;4947674;28;20073;-87
2022/06/25 06:40:10;;;;;;;0.00;0.00;;;22.40;99.90;;;;;;4930609;28;20046;-85
2022/06/25 06:42:36;;;;;;;0.00;0.00;;;21.10;99.90;;;;;;4948684;28;20031;-84
2022/06/25 06:45:02;;;;;;;0.10;0.10;;;20.40;99.90;;;;;;4948462;28;20041;-86
2022/06/25 06:47:28;;;;;;;0.10;0.10;;;20.20;99.90;;;;;;4945407;28;20609;-86
2022/06/25 06:49:54;;;;;;;0.10;0.10;;;20.40;99.90;;;;;;4951350;28;20201;-85
2022/06/25 06:52:19;;;;;;;0.10;0.10;;;20.40;99.90;;;;;;4952932;28;20031;-86
2022/06/25 06:54:45;;;;;;;0.00;0.00;;;20.50;99.90;;;;;;4934298;28;20054;-85
2022/06/25 06:57:11;;;;;;;0.10;0.07;;;22.60;99.90;;;;;;4951988;28;20051;-86
2022/06/25 06:59:36;;;;;;;0.07;0.07;;;26.00;95.70;;;;;;4950255;28;20122;-85
2022/06/25 07:02:03;;;;;;;0.30;0.30;;;27.10;85.10;;;;;;4949114;28;20038;-85
2022/06/25 07:04:28;;;;;;;0.00;0.00;;;27.70;75.10;;;;;;4953687;28;20106;-85
2022/06/25 07:06:54;;;;;;;0.00;0.00;;;28.40;76.10;;;;;;4935368;28;20567;-85
2022/06/25 07:09:19;;;;;;;0.00;0.00;;;28.00;78.00;;;;;;4954154;28;20027;-84
2022/06/25 07:11:45;;;;;;;0.00;0.00;;;27.00;81.50;;;;;;4951964;28;20030;-86
2022/06/25 07:14:13;;;;;;;0.00;0.00;;;26.30;87.40;;;;;;4947764;28;20069;-85
2022/06/25 07:16:39;;;;;;;0.00;0.00;;;26.40;90.30;;;;;;4950924;28;20073;-85
2022/06/25 07:19:05;;;;;;;0.00;0.00;;;26.70;85.70;;;;;;4951433;28;20045;-85
2022/06/25 07:21:31;;;;;;;0.00;0.00;;;26.90;83.90;;;;;;4955282;28;20043;-85
2022/06/25 07:23:57;;;;;;;0.00;0.00;;;27.50;85.10;;;;;;4946860;28;20047;-85
2022/06/25 07:26:22;;;;;;;;;;;28.90;78.00;;;;;;4949365;28;20118;-85
2022/06/25 07:28:48;;;;;;;0.00;0.00;;;28.70;71.80;;;;;;4946997;28;20004;-85
2022/06/25 07:31:14;;;;;;;0.10;0.10;;;28.70;76.10;;;;;;4949592;28;20065;-86
2022/06/25 07:33:40;;;;;;;0.10;0.10;;;28.90;76.60;;;;;;4947980;28;20043;-85
2022/06/25 07:36:07;;;;;;;;;;;29.30;71.30;;;;;;4949339;28;20070;-86
2022/06/25 07:38:33;;;;;;;0.20;0.20;;;28.60;69.70;;;;;;4949498;28;19909;-85
2022/06/25 07:41:00;;;;;;;0.00;0.00;;;27.50;72.40;;;;;;4947284;28;20047;-86
2022/06/25 07:43:27;;;;;;;0.20;0.15;;;27.50;74.60;;;;;;4947223;28;20091;-85
2022/06/25 07:45:53;;;;;;;0.00;0.00;;;26.70;75.40;;;;;;4949250;28;20431;-85
2022/06/25 07:48:19;;;;;;;0.20;0.20;;;25.90;80.90;;;;;;4949566;28;20559;-85
2022/06/25 07:53:30;;;;;;;0.10;0.07;;;25.60;86.70;;;;;;4949632;28;20045;-86
2022/06/25 07:55:55;;;;;;;0.00;0.00;;;25.60;80.80;;;;;;4954486;28;20035;-86
2022/06/25 07:58:23;;;;;;;0.03;0.03;;;27.10;77.70;;;;;;4934666;29;20150;-85
2022/06/25 08:00:49;;;;;;;0.10;0.10;;;26.30;77.30;;;;;;4952613;28;20035;-86
2022/06/25 08:03:15;;;;;;;0.13;0.13;;;26.20;81.50;;;;;;4951595;28;20039;-86
2022/06/25 08:05:40;;;;;;;0.00;0.00;;;27.80;78.20;;;;;;4956237;28;20074;-86
2022/06/25 08:08:06;;;;;;;0.00;0.00;;;27.00;70.00;;;;;;4951778;28;20035;-86
2022/06/25 08:10:32;;;;;;;1.92;0.15;;;26.30;74.50;;;;;;4951684;28;20050;-85
2022/06/25 08:12:57;;;;;;;0.30;0.30;;;26.10;75.10;;;;;;4955424;28;20027;-86
2022/06/25 08:15:23;;;;;;;0.20;0.20;;;25.40;76.80;;;;;;4957832;28;20141;-85
2022/06/25 08:17:49;;;;;;;0.00;0.00;;;26.40;76.20;;;;;;4961611;28;20543;-85
2022/06/25 08:20:14;;;;;;;0.20;0.20;;;26.50;73.70;;;;;;4937441;28;20030;-84
2022/06/25 08:22:40;;;;;;;0.00;0.00;;;26.80;70.50;;;;;;4946221;28;20317;-86
2022/06/25 08:25:09;;;;;;;0.05;0.05;;;28.00;68.00;;;;;;4946402;28;20487;-86
2022/06/25 08:27:45;;;;;;;0.03;0.03;;;28.80;66.90;;;;;;4946299;28;20034;-86
2022/06/25 08:30:11;;;;;;;0.00;0.00;;;30.00;65.70;;;;;;4951427;28;20043;-85
2022/06/25 08:32:36;;;;;;;8.27;0.40;;;29.90;64.60;;;;;;4960095;28;20054;-85
2022/06/25 08:35:02;;;;;;;0.08;0.08;;;30.60;62.00;;;;;;4958910;28;20039;-86
2022/06/25 08:37:28;;;;;;;0.00;0.00;;;29.80;59.90;;;;;;4958633;28;20041;-85
2022/06/25 08:39:54;;;;;;;0.25;0.03;;;29.30;64.10;;;;;;4956603;28;20500;-85
2022/06/25 08:42:19;;;;;;;0.00;0.00;;;29.90;60.00;;;;;;4959266;28;20084;-85
2022/06/25 08:44:45;;;;;;;;;;;29.90;61.40;;;;;;4962533;28;20102;-85
2022/06/25 08:47:12;;;;;;;0.00;0.00;;;30.90;56.30;;;;;;4957669;28;19993;-85
2022/06/25 08:49:38;;;;;;;0.00;0.00;;;30.90;57.70;;;;;;4943020;28;20117;-85
2022/06/25 08:52:06;;;;;;;;;;;30.60;58.00;;;;;;4950309;28;20125;-86
2022/06/25 08:54:33;;;;;;;0.10;0.10;;;30.10;57.20;;;;;;4951809;28;19914;-85
2022/06/25 08:56:59;;;;;;;0.00;0.00;;;29.50;57.30;;;;;;4951107;28;20031;-85
2022/06/25 08:59:26;;;;;;;0.00;0.00;;;29.60;57.30;;;;;;4958284;28;20045;-86
2022/06/25 09:01:52;;;;;;;0.00;0.00;;;29.20;57.50;;;;;;4959151;28;20058;-86
2022/06/25 09:04:17;;;;;;;0.00;0.00;;;29.90;57.00;;;;;;4949229;28;20118;-87
2022/06/25 09:06:43;;;;;;;0.00;0.00;;;30.40;57.40;;;;;;4951586;28;20035;-86
2022/06/25 09:09:10;;;;;;;;;;;31.90;53.50;;;;;;4954170;28;20039;-88
2022/06/25 09:12:07;;;;;;;0.00;0.00;;;33.00;52.40;;;;;;4948656;28;19937;-87
2022/06/25 09:14:35;;;;;;;0.00;0.00;;;31.90;51.20;;;;;;4946614;28;20512;-88
2022/06/25 09:17:04;;;;;;;0.32;0.15;;;31.70;52.00;;;;;;4947407;28;20547;-87
2022/06/25 09:19:36;;;;;;;0.00;0.00;;;32.30;52.30;;;;;;4938928;28;20035;-87
2022/06/25 09:22:10;;;;;;;0.05;0.05;;;33.30;49.30;;;;;;4949885;28;20043;-87
2022/06/25 09:24:42;;;;;;;0.20;0.13;;;34.00;48.10;;;;;;4931474;28;20038;-86
2022/06/25 09:27:07;;;;;;;0.00;0.00;;;33.20;50.00;;;;;;4948410;28;20123;-86
2022/06/25 09:29:40;;;;;;;0.28;0.20;;;34.80;47.90;;;;;;4946217;28;20437;-86
2022/06/25 09:32:06;;;;;;;0.00;0.00;;;34.10;48.70;;;;;;4946791;28;20039;-86
2022/06/25 09:34:34;;;;;;;0.00;0.00;;;34.40;47.50;;;;;;4952677;28;20519;-86
2022/06/25 09:37:18;;;;;;;0.00;0.00;;;32.70;49.40;;;;;;4946738;28;20883;-86
2022/06/25 09:39:46;;;;;;;0.00;0.00;;;33.20;50.10;;;;;;4946066;28;20034;-86
2022/06/25 09:42:26;;;;;;;0.03;0.03;;;34.50;50.50;;;;;;4945563;28;20038;-85
2022/06/25 09:45:00;;;;;;;0.00;0.00;;;34.30;47.50;;;;;;4947982;28;20106;-86
2022/06/25 09:47:27;;;;;;;0.10;0.10;;;31.60;49.00;;;;;;4946409;28;20038;-86
2022/06/25 09:50:07;;;;;;;0.13;0.10;;;33.40;49.00;;;;;;4954269;28;20549;-85
2022/06/25 09:52:34;;;;;;;0.05;0.05;;;32.50;49.40;;;;;;4947708;28;20468;-85
2022/06/25 09:55:00;;;;;;;0.00;0.00;;;32.60;50.80;;;;;;4935761;28;20047;-86
2022/06/25 09:57:26;;;;;;;;;;;34.80;49.60;;;;;;4945826;28;20030;-85
2022/06/25 09:59:55;;;;;;;0.05;0.05;;;33.70;49.40;;;;;;4931851;28;19921;-85
2022/06/25 10:02:22;;;;;;;0.00;0.00;;;32.00;50.20;;;;;;4949163;28;20046;-84
2022/06/25 10:04:51;;;;;;;0.00;0.00;;;32.10;50.30;;;;;;4932671;28;20152;-85
2022/06/25 10:07:19;;;;;;;0.00;0.00;;;31.40;52.20;;;;;;4947130;28;20031;-85
2022/06/25 10:09:45;;;;;;;2.03;0.10;;;34.00;49.70;;;;;;4945676;28;20820;-85
2022/06/25 10:12:13;;;;;;;0.00;0.00;;;33.60;49.10;;;;;;4945940;28;20082;-84
2022/06/25 10:14:39;;;;;;;0.10;0.10;;;33.70;52.30;;;;;;4950753;28;20101;-84
2022/06/25 10:17:05;;;;;;;0.00;0.00;;;33.50;50.50;;;;;;4956321;28;20062;-86
2022/06/25 10:19:32;;;;;;;0.00;0.00;;;32.50;50.90;;;;;;4951501;28;20046;-86
2022/06/25 10:22:00;;;;;;;0.00;0.00;;;31.10;52.70;;;;;;4954431;28;20047;-86
2022/06/25 10:24:28;;;;;;;0.03;0.03;;;30.60;53.90;;;;;;4947930;28;20123;-85
2022/06/25 10:26:54;;;;;;;0.00;0.00;;;30.40;56.90;;;;;;4955140;28;20023;-85
2022/06/25 10:29:29;;;;;;;;;;;30.80;57.10;;;;;;4957650;28;20046;-85
2022/06/25 10:32:17;;;;;;;0.52;0.43;;;31.00;56.00;;;;;;4958954;28;19968;-86
2022/06/25 10:34:54;;;;;;;0.10;0.00;;;30.50;56.30;;;;;;4962600;28;20558;-85
2022/06/25 10:37:20;;;;;;;0.00;0.00;;;30.10;58.90;;;;;;4956741;28;20578;-85
2022/06/25 10:39:53;;;;;;;0.35;0.10;;;29.90;58.90;;;;;;4955035;28;20031;-86
2022/06/25 10:45:27;;;;;;;0.10;0.10;;;29.90;58.30;;;;;;4950322;28;20054;-84
2022/06/25 10:47:56;;;;;;;0.20;0.15;;;29.00;59.30;;;;;;4948292;28;20138;-82
2022/06/25 10:50:22;;;;;;;0.00;0.00;;;29.30;60.60;;;;;;4949011;28;20558;-87
2022/06/25 10:53:03;;;;;;;0.00;0.00;;;28.70;61.80;;;;;;4953813;28;20043;-85
2022/06/25 10:55:48;;;;;;;0.03;0.00;;;28.40;66.70;;;;;;4951879;28;20110;-85
2022/06/25 10:58:17;;;;;;;0.10;0.10;;;28.10;66.40;;;;;;4948194;28;20122;-84
2022/06/25 11:00:50;;;;;;;0.13;0.13;;;27.60;66.00;;;;;;4949464;28;20307;-84
2022/06/25 11:03:28;;;;;;;0.10;0.10;;;27.60;68.80;;;;;;4947948;28;20110;-85
2022/06/25 11:05:56;;;;;;;0.00;0.00;;;27.30;79.20;;;;;;4946521;28;20042;-85
2022/06/25 11:08:31;;;;;;;0.00;0.00;;;27.90;81.00;;;;;;4956028;28;20054;-85
2022/06/25 11:10:56;;;;;;;0.15;0.15;;;28.30;82.30;;;;;;4932106;28;20448;-84
2022/06/25 11:13:25;;;;;;;0.10;0.10;;;28.20;80.10;;;;;;4947680;28;20032;-84
2022/06/25 11:15:51;;;;;;;6.45;0.73;;;28.00;84.70;;;;;;4946799;28;20043;-85
2022/06/25 11:18:17;;;;;;;0.08;0.08;;;27.10;88.70;;;;;;4954900;28;20035;-84
2022/06/25 11:20:42;;;;;;;0.20;0.20;;;26.70;89.80;;;;;;4959228;28;20047;-85
2022/06/25 11:23:15;;;;;;;0.10;0.10;;;26.40;90.00;;;;;;4953033;28;20563;-84
2022/06/25 11:28:48;;;;;;;0.00;0.00;;;26.10;91.40;;;;;;4956809;28;20588;-86
2022/06/25 11:31:21;;;;;;;0.05;0.05;;;25.80;91.40;;;;;;4943322;28;20896;-85
2022/06/25 11:33:49;;;;;;;0.10;0.10;;;26.20;90.80;;;;;;4956387;28;20042;-86
2022/06/25 11:36:15;;;;;;;0.20;0.10;;;26.20;89.60;;;;;;4952723;28;20035;-85
2022/06/25 11:38:53;;;;;;;0.05;0.05;;;26.40;84.00;;;;;;4931750;28;20043;-85
2022/06/25 11:41:27;;;;;;;0.10;0.10;;;26.50;83.60;;;;;;4950057;28;20126;-85
2022/06/25 11:43:54;;;;;;;0.10;0.10;;;26.50;83.40;;;;;;4946433;28;20035;-85
2022/06/25 11:46:20;;;;;;;0.00;0.00;;;26.20;81.50;;;;;;4955284;28;20090;-85
2022/06/25 11:48:50;;;;;;;0.00;0.00;;;26.60;82.60;;;;;;4953554;28;20035;-85
2022/06/25 11:51:24;;;;;;;0.55;0.38;;;26.30;80.90;;;;;;4950194;28;20142;-85
2022/06/25 11:53:53;;;;;;;0.00;0.00;;;25.70;79.80;;;;;;4948857;28;20026;-83
2022/06/25 11:56:19;;;;;;;0.00;0.00;;;25.50;82.00;;;;;;4929545;28;20747;-83
2022/06/25 11:58:45;;;;;;;0.00;0.00;;;25.20;84.10;;;;;;4950806;28;20023;-84
2022/06/25 12:01:11;;;;;;;0.00;0.00;;;24.60;84.80;;;;;;4948387;28;20055;-83
2022/06/25 12:03:37;;;;;;;0.10;0.10;;;24.40;89.20;;;;;;4933459;28;20027;-84
2022/06/25 12:06:04;;;;;;;0.65;0.47;;;23.70;92.20;;;;;;4957921;28;20051;-84
2022/06/25 12:08:31;;;;;;;0.10;0.10;;;23.60;94.30;;;;;;4933088;28;20101;-84
2022/06/25 12:10:59;;;;;;;0.10;0.10;;;24.00;94.70;;;;;;4952371;28;20043;-84
2022/06/25 12:13:29;;;;;;;0.22;0.03;;;23.90;95.70;;;;;;4933844;28;20287;-84
2022/06/25 12:15:59;;;;;;;0.13;0.13;;;23.70;96.30;;;;;;4955910;28;20035;-84
2022/06/25 12:18:39;;;;;;;0.20;0.20;;;23.80;96.20;;;;;;4956176;28;20039;-84
2022/06/25 12:21:07;;;;;;;0.00;0.00;;;23.50;97.30;;;;;;4955204;28;20069;-84
2022/06/25 12:23:53;;;;;;;0.03;0.00;;;23.70;96.80;;;;;;4961026;28;20035;-83
2022/06/25 12:26:31;;;;;;;0.30;0.22;;;23.60;95.00;;;;;;4945539;28;20030;-84
2022/06/25 12:29:18;;;;;;;0.22;0.10;;;23.70;95.70;;;;;;4959142;28;20065;-83
2022/06/25 12:31:58;;;;;;;;;;;24.00;96.20;;;;;;4957575;28;20027;-83
2022/06/25 12:34:25;;;;;;;0.10;0.10;;;24.00;99.00;;;;;;4952285;28;21569;-82
2022/06/25 12:36:52;;;;;;;0.05;0.05;;;24.20;97.10;;;;;;4955239;28;20102;-83
2022/06/25 12:39:44;;;;;;;0.10;0.10;;;24.50;95.10;;;;;;4949739;28;20041;-83
2022/06/25 12:42:13;;;;;;;0.15;0.15;;;24.60;96.10;;;;;;4945387;28;20058;-82
2022/06/25 12:44:40;;;;;;;0.05;0.05;;;25.00;92.30;;;;;;4950859;28;20027;-83
2022/06/25 12:47:12;;;;;;;0.00;0.00;;;24.90;92.80;;;;;;4937004;28;20062;-83
2022/06/25 12:49:42;;;;;;;0.10;0.10;;;24.70;94.90;;;;;;4951638;28;20023;-82
2022/06/25 12:52:08;;;;;;;0.10;0.00;;;25.40;93.30;;;;;;4950939;28;20085;-83
2022/06/25 12:55:04;;;;;;;0.03;0.03;;;25.40;93.60;;;;;;4937425;28;20035;-83
2022/06/25 12:57:31;;;;;;;0.00;0.00;;;25.20;90.90;;;;;;4939283;28;20046;-84
2022/06/25 12:59:59;;;;;;;0.00;0.00;;;24.80;91.70;;;;;;4952410;28;20050;-83
2022/06/25 13:02:25;;;;;;;0.00;0.00;;;24.70;94.30;;;;;;4952526;28;20047;-83
2022/06/25 13:04:51;;;;;;;0.13;0.13;;;24.80;92.50;;;;;;4946939;28;20039;-84
2022/06/25 13:07:17;;;;;;;0.10;0.10;;;24.70;96.30;;;;;;4930349;28;20039;-83
2022/06/25 13:09:45;;;;;;;0.40;0.35;;;24.80;92.80;;;;;;4953288;28;20031;-83